createdAt,value
2023-03-27T00:02:50.933Z,98826.87
2023-03-27T00:07:55.765Z,98820.13
2023-03-27T00:12:58.681Z,98811.50
2023-03-27T00:18:04.079Z,98805.84
2023-03-27T00:23:06.752Z,98798.94
2023-03-27T00:28:09.085Z,98795.09
2023-03-27T00:33:12.509Z,98783.38
2023-03-27T00:38:16.400Z,98780.75
2023-03-27T00:43:27.658Z,98773.16
2023-03-27T00:48:33.915Z,98772.66
2023-03-27T00:53:36.258Z,98758.72
2023-03-27T00:58:46.657Z,98748.69
2023-03-27T01:03:50.344Z,98745.34
2023-03-27T01:08:52.991Z,98734.00
2023-03-27T01:14:33.682Z,98724.84
2023-03-27T01:19:38.679Z,98712.87
2023-03-27T01:25:10.728Z,98701.22
2023-03-27T01:30:19.946Z,98693.50
2023-03-27T01:35:50.096Z,98688.59
2023-03-27T01:41:03.217Z,98685.47
2023-03-27T01:46:36.158Z,98685.03
2023-03-27T01:51:41.839Z,98679.41
2023-03-27T01:56:53.738Z,98680.81
2023-03-27T02:02:03.327Z,98660.25
2023-03-27T02:07:12.643Z,98664.75
2023-03-27T02:12:24.336Z,98660.37
2023-03-27T02:17:28.391Z,98659.69
2023-03-27T02:22:37.724Z,98671.34
2023-03-27T02:27:47.841Z,98667.53
2023-03-27T02:33:16.063Z,98658.75
2023-03-27T02:38:47.605Z,98649.94
2023-03-27T02:44:13.617Z,98620.63
2023-03-27T02:49:27.175Z,98603.19
2023-03-27T02:54:36.041Z,98598.19
2023-03-27T02:59:45.019Z,98590.97
2023-03-27T03:04:57.230Z,98583.87
2023-03-27T03:09:59.391Z,98571.78
2023-03-27T03:15:01.579Z,98569.34
2023-03-27T03:20:05.754Z,98569.28
2023-03-27T03:25:08.990Z,98571.78
2023-03-27T03:30:16.674Z,98572.25
2023-03-27T03:35:19.626Z,98569.34
2023-03-27T03:40:22.255Z,98567.53
2023-03-27T03:45:24.456Z,98568.53
2023-03-27T03:50:26.592Z,98575.94
2023-03-27T03:55:29.579Z,98558.06
2023-03-27T04:00:34.589Z,98556.62
2023-03-27T04:05:37.647Z,98555.69
2023-03-27T04:10:41.376Z,98554.94
2023-03-27T04:15:43.586Z,98553.69
2023-03-27T04:20:50.518Z,98554.25
2023-03-27T04:25:53.509Z,98553.06
2023-03-27T04:30:56.729Z,98559.66
2023-03-27T04:36:07.204Z,98549.59
2023-03-27T04:41:10.008Z,98561.06
2023-03-27T04:46:12.205Z,98560.47
2023-03-27T04:51:14.397Z,98548.97
2023-03-27T04:56:17.577Z,98543.22
2023-03-27T05:01:19.861Z,98545.66
2023-03-27T05:06:23.238Z,98544.00
2023-03-27T05:11:26.150Z,98542.75
2023-03-27T05:16:28.319Z,98533.06
2023-03-27T05:21:30.891Z,98524.66
2023-03-27T05:26:33.250Z,98521.72
2023-03-27T05:31:37.480Z,98520.75
2023-03-27T05:36:39.786Z,98517.47
2023-03-27T05:41:41.989Z,98517.50
2023-03-27T05:46:44.145Z,98501.63
2023-03-27T05:51:47.212Z,98509.41
2023-03-27T05:56:49.915Z,98497.53
2023-03-27T06:01:52.120Z,98504.25
2023-03-27T06:06:54.327Z,98486.69
2023-03-27T06:11:56.565Z,98493.75
2023-03-27T06:16:58.830Z,98488.28
2023-03-27T06:22:01.288Z,98482.72
2023-03-27T06:27:03.962Z,98485.13
2023-03-27T06:32:06.431Z,98486.47
2023-03-27T06:37:08.618Z,98484.75
2023-03-27T06:42:11.001Z,98477.37
2023-03-27T06:47:13.265Z,98480.56
2023-03-27T06:52:17.759Z,98482.19
2023-03-27T06:57:19.979Z,98476.72
2023-03-27T07:02:22.392Z,98479.22
2023-03-27T07:07:24.626Z,98473.09
2023-03-27T07:12:27.558Z,98474.44
2023-03-27T07:17:38.246Z,98477.25
2023-03-27T07:22:48.062Z,98480.16
2023-03-27T07:27:50.383Z,98492.87
2023-03-27T07:32:52.694Z,98498.00
2023-03-27T07:37:55.280Z,98502.16
2023-03-27T07:42:59.855Z,98493.28
2023-03-27T07:48:10.458Z,98495.56
2023-03-27T07:53:32.587Z,98512.19
2023-03-27T07:58:37.174Z,98513.88
2023-03-27T08:03:42.530Z,98507.59
2023-03-27T08:08:46.008Z,98510.00
2023-03-27T08:13:48.555Z,98513.63
2023-03-27T08:18:50.694Z,98501.78
2023-03-27T08:23:57.734Z,98503.56
2023-03-27T08:29:00.512Z,98506.87
2023-03-27T08:34:02.821Z,98520.47
2023-03-27T08:39:06.274Z,98528.00
2023-03-27T08:44:15.151Z,98530.41
2023-03-27T08:49:19.526Z,98526.66
2023-03-27T08:54:33.272Z,98528.13
2023-03-27T08:59:35.594Z,98540.94
2023-03-27T09:04:49.018Z,98538.00
2023-03-27T09:09:52.805Z,98546.34
2023-03-27T09:14:57.975Z,98543.63
2023-03-27T09:20:23.412Z,98554.94
2023-03-27T09:25:38.100Z,98559.69
2023-03-27T09:30:40.320Z,98563.62
2023-03-27T09:35:42.733Z,98572.94
2023-03-27T09:40:53.312Z,98580.63
2023-03-27T09:45:57.102Z,98579.84
2023-03-27T09:50:59.520Z,98590.13
2023-03-27T09:56:13.846Z,98598.91
2023-03-27T10:01:34.406Z,98601.47
2023-03-27T10:06:38.916Z,98610.31
2023-03-27T10:11:41.416Z,98607.78
2023-03-27T10:16:46.300Z,98618.59
2023-03-27T10:21:48.706Z,98620.81
2023-03-27T10:26:53.236Z,98603.69
2023-03-27T10:31:58.583Z,98611.44
2023-03-27T10:37:03.251Z,98623.91
2023-03-27T10:42:08.896Z,98625.94
2023-03-27T10:47:24.462Z,98636.09
2023-03-27T10:52:39.614Z,98637.13
2023-03-27T10:57:46.500Z,98637.72
2023-03-27T11:03:13.844Z,98636.31
2023-03-27T11:08:21.858Z,98643.09
2023-03-27T11:13:29.476Z,98651.53
2023-03-27T11:18:45.877Z,98644.00
2023-03-27T11:23:56.829Z,98652.63
2023-03-27T11:29:20.575Z,98647.16
2023-03-27T11:34:46.394Z,98651.00
2023-03-27T11:39:58.692Z,98658.81
2023-03-27T11:45:04.720Z,98656.94
2023-03-27T11:50:12.901Z,98648.75
2023-03-27T11:55:35.411Z,98660.91
2023-03-27T12:00:59.014Z,98657.00
2023-03-27T12:06:19.893Z,98659.00
2023-03-27T12:11:25.662Z,98666.50
2023-03-27T12:16:43.730Z,98669.28
2023-03-27T12:22:24.300Z,98678.47
2023-03-27T12:27:32.849Z,98681.13
2023-03-27T12:32:48.768Z,98699.13
2023-03-27T12:37:59.070Z,98697.00
2023-03-27T12:43:06.371Z,98710.16
2023-03-27T12:48:11.355Z,98718.06
2023-03-27T12:53:25.581Z,98729.47
2023-03-27T12:58:34.541Z,98733.78
2023-03-27T13:04:09.943Z,98731.13
2023-03-27T13:09:21.420Z,98749.38
2023-03-27T13:14:48.208Z,98781.28
2023-03-27T13:20:10.343Z,98792.31
2023-03-27T13:25:16.013Z,98810.66
2023-03-27T13:30:51.465Z,98820.16
2023-03-27T13:36:02.801Z,98828.94
2023-03-27T13:41:37.351Z,98842.25
2023-03-27T13:46:44.842Z,98856.97
2023-03-27T13:51:53.342Z,98901.75
2023-03-27T13:57:05.354Z,98893.63
2023-03-27T14:02:11.047Z,98920.91
2023-03-27T14:07:28.426Z,98969.78
2023-03-27T14:12:54.165Z,98962.69
2023-03-27T14:18:21.340Z,99005.59
2023-03-27T14:23:30.576Z,99012.47
2023-03-27T14:28:54.548Z,99014.66
2023-03-27T14:34:06.376Z,99040.03
2023-03-27T14:39:31.417Z,99040.91
2023-03-27T14:44:33.625Z,99070.09
2023-03-27T14:49:45.239Z,99069.38
2023-03-27T14:54:55.142Z,99079.97
2023-03-27T14:59:58.294Z,99093.59
2023-03-27T15:05:22.609Z,99093.28
2023-03-27T15:10:28.170Z,99152.31
2023-03-27T15:15:43.254Z,99151.38
2023-03-27T15:20:46.746Z,99159.06
2023-03-27T15:25:56.692Z,99180.09
2023-03-27T15:31:03.362Z,99203.31
2023-03-27T15:36:11.152Z,99224.09
2023-03-27T15:41:16.307Z,99211.03
2023-03-27T15:46:20.237Z,99240.50
2023-03-27T15:51:22.467Z,99260.94
2023-03-27T15:56:39.479Z,99274.28
2023-03-27T16:01:53.948Z,99286.25
2023-03-27T16:07:11.406Z,99298.25
2023-03-27T16:12:16.089Z,99303.66
2023-03-27T16:17:28.096Z,99341.56
2023-03-27T16:22:36.189Z,99324.41
2023-03-27T16:27:39.949Z,99369.91
2023-03-27T16:32:42.187Z,99406.87
2023-03-27T16:37:44.931Z,99403.62
2023-03-27T16:42:47.265Z,99414.25
2023-03-27T16:47:52.872Z,99430.41
2023-03-27T16:52:56.039Z,99411.84
2023-03-27T16:57:58.228Z,99475.59
2023-03-27T17:03:00.969Z,99483.53
2023-03-27T17:08:05.956Z,99502.91
2023-03-27T17:13:09.783Z,99507.81
2023-03-27T17:18:11.945Z,99544.31
2023-03-27T17:23:15.151Z,99512.44
2023-03-27T17:28:17.806Z,99571.22
2023-03-27T17:33:20.030Z,99586.19
2023-03-27T17:38:23.113Z,99598.94
2023-03-27T17:43:25.337Z,99603.59
2023-03-27T17:48:27.452Z,99594.59
2023-03-27T17:53:30.370Z,99599.66
2023-03-27T17:58:34.573Z,99609.81
2023-03-27T18:03:36.950Z,99627.19
2023-03-27T18:08:39.218Z,99627.84
2023-03-27T18:13:42.554Z,99646.78
2023-03-27T18:18:46.779Z,99646.66
2023-03-27T18:23:49.079Z,99675.22
2023-03-27T18:28:52.482Z,99682.78
2023-03-27T18:33:54.713Z,99675.88
2023-03-27T18:38:57.252Z,99671.22
2023-03-27T18:43:59.467Z,99667.13
2023-03-27T18:49:10.318Z,99662.50
2023-03-27T18:54:19.933Z,99676.22
2023-03-27T18:59:23.248Z,99671.97
2023-03-27T19:04:25.439Z,99688.75
2023-03-27T19:09:40.823Z,99678.50
2023-03-27T19:14:43.832Z,99676.00
2023-03-27T19:19:46.593Z,99703.50
2023-03-27T19:24:48.930Z,99704.78
2023-03-27T19:29:51.722Z,99729.66
2023-03-27T19:34:53.925Z,99726.53
2023-03-27T19:39:56.400Z,99744.66
2023-03-27T19:44:58.564Z,99758.22
2023-03-27T19:50:00.986Z,99756.50
2023-03-27T19:55:03.958Z,99779.72
2023-03-27T20:00:10.821Z,99759.81
2023-03-27T20:05:13.035Z,99799.22
2023-03-27T20:10:16.123Z,99782.69
2023-03-27T20:15:18.346Z,99788.13
2023-03-27T20:20:20.478Z,99769.34
2023-03-27T20:25:22.737Z,99759.81
2023-03-27T20:30:25.377Z,99805.09
2023-03-27T20:35:27.574Z,99757.84
2023-03-27T20:40:32.935Z,99789.84
2023-03-27T20:45:45.722Z,99783.81
2023-03-27T20:50:52.525Z,99803.03
2023-03-27T20:56:03.706Z,99835.53
2023-03-27T21:01:09.074Z,99833.31
2023-03-27T21:06:15.155Z,99836.78
2023-03-27T21:11:17.288Z,99844.91
2023-03-27T21:16:19.485Z,99844.56
2023-03-27T21:21:21.702Z,99855.72
2023-03-27T21:26:24.208Z,99866.03
2023-03-27T21:31:26.536Z,99859.59
2023-03-27T21:36:29.719Z,99871.47
2023-03-27T21:41:32.248Z,99869.56
2023-03-27T21:46:34.573Z,99890.00
2023-03-27T21:51:37.114Z,99890.00
2023-03-27T21:56:39.297Z,99903.22
2023-03-27T22:01:41.586Z,99910.28
2023-03-27T22:06:44.667Z,99927.16
2023-03-27T22:11:46.959Z,99930.84
2023-03-27T22:16:49.271Z,99946.69
2023-03-27T22:21:51.441Z,99950.47
2023-03-27T22:26:53.638Z,99938.78
2023-03-27T22:31:55.827Z,99953.66
2023-03-27T22:36:57.983Z,99960.25
2023-03-27T22:42:00.415Z,99987.28
2023-03-27T22:47:02.977Z,99991.41
2023-03-27T22:52:06.074Z,99983.03
2023-03-27T22:57:08.338Z,100003.31
2023-03-27T23:02:10.586Z,100003.31
2023-03-27T23:07:12.801Z,100002.25
2023-03-27T23:12:14.970Z,99994.53
2023-03-27T23:17:17.318Z,100008.34
2023-03-27T23:22:19.533Z,100026.66
2023-03-27T23:27:21.652Z,100030.47
2023-03-27T23:32:23.840Z,100046.59
2023-03-27T23:37:28.877Z,100049.75
2023-03-27T23:42:32.275Z,100043.63
2023-03-27T23:47:34.381Z,100061.28
2023-03-27T23:52:36.568Z,100068.09
2023-03-27T23:57:38.689Z,100076.28
